sensor_id;sensor_type;location;lat;lon;timestamp;P1;durP1;ratioP1;P2;durP2;ratioP2
17858;SDS011;35426;30.698;104.050;2022-09-13T00:01:57;129.77;;;86.77;;
17858;SDS011;35426;30.698;104.050;2022-09-13T00:04:36;128.47;;;83.73;;
17858;SDS011;35426;30.698;104.050;2022-09-13T00:07:14;131.73;;;86.20;;
17858;SDS011;35426;30.698;104.050;2022-09-13T00:09:50;133.73;;;85.67;;
17858;SDS011;35426;30.698;104.050;2022-09-13T00:12:34;135.53;;;84.43;;
17858;SDS011;35426;30.698;104.050;2022-09-13T00:15:18;124.13;;;83.17;;
17858;SDS011;35426;30.698;104.050;2022-09-13T00:17:55;130.13;;;82.00;;
17858;SDS011;35426;30.698;104.050;2022-09-13T00:20:32;133.50;;;84.67;;
17858;SDS011;35426;30.698;104.050;2022-09-13T00:23:10;128.67;;;84.53;;
17858;SDS011;35426;30.698;104.050;2022-09-13T00:25:46;133.77;;;85.97;;
17858;SDS011;35426;30.698;104.050;2022-09-13T00:28:26;131.37;;;85.47;;
17858;SDS011;35426;30.698;104.050;2022-09-13T00:31:02;128.63;;;84.90;;
17858;SDS011;35426;30.698;104.050;2022-09-13T00:33:42;129.70;;;82.00;;
17858;SDS011;35426;30.698;104.050;2022-09-13T00:36:49;131.50;;;87.13;;
17858;SDS011;35426;30.698;104.050;2022-09-13T00:39:27;136.27;;;85.97;;
17858;SDS011;35426;30.698;104.050;2022-09-13T00:42:03;139.63;;;88.13;;
17858;SDS011;35426;30.698;104.050;2022-09-13T00:44:51;132.47;;;87.80;;
17858;SDS011;35426;30.698;104.050;2022-09-13T00:47:32;135.13;;;88.97;;
17858;SDS011;35426;30.698;104.050;2022-09-13T00:50:14;140.67;;;90.30;;
17858;SDS011;35426;30.698;104.050;2022-09-13T00:53:06;133.07;;;84.73;;
17858;SDS011;35426;30.698;104.050;2022-09-13T00:55:46;140.37;;;90.60;;
17858;SDS011;35426;30.698;104.050;2022-09-13T00:58:28;138.43;;;90.57;;
17858;SDS011;35426;30.698;104.050;2022-09-13T01:01:09;144.83;;;89.73;;
17858;SDS011;35426;30.698;104.050;2022-09-13T01:03:49;138.40;;;89.23;;
17858;SDS011;35426;30.698;104.050;2022-09-13T01:06:41;143.83;;;90.70;;
17858;SDS011;35426;30.698;104.050;2022-09-13T01:09:28;138.87;;;90.50;;
17858;SDS011;35426;30.698;104.050;2022-09-13T01:12:11;144.50;;;92.47;;
17858;SDS011;35426;30.698;104.050;2022-09-13T01:15:04;151.27;;;93.97;;
17858;SDS011;35426;30.698;104.050;2022-09-13T01:18:09;144.93;;;94.10;;
17858;SDS011;35426;30.698;104.050;2022-09-13T01:20:53;148.43;;;92.60;;
17858;SDS011;35426;30.698;104.050;2022-09-13T01:27:37;145.73;;;87.73;;
17858;SDS011;35426;30.698;104.050;2022-09-13T01:30:25;136.60;;;88.00;;
17858;SDS011;35426;30.698;104.050;2022-09-13T01:33:20;137.80;;;88.33;;
17858;SDS011;35426;30.698;104.050;2022-09-13T01:36:23;147.47;;;93.30;;
17858;SDS011;35426;30.698;104.050;2022-09-13T01:39:16;148.37;;;95.10;;
17858;SDS011;35426;30.698;104.050;2022-09-13T01:42:20;143.10;;;90.60;;
17858;SDS011;35426;30.698;104.050;2022-09-13T01:45:11;138.53;;;88.90;;
17858;SDS011;35426;30.698;104.050;2022-09-13T01:47:59;134.13;;;86.97;;
17858;SDS011;35426;30.698;104.050;2022-09-13T01:50:43;134.27;;;84.50;;
17858;SDS011;35426;30.698;104.050;2022-09-13T01:53:30;128.43;;;81.27;;
17858;SDS011;35426;30.698;104.050;2022-09-13T01:56:16;124.27;;;80.43;;
17858;SDS011;35426;30.698;104.050;2022-09-13T01:59:03;132.50;;;85.37;;
17858;SDS011;35426;30.698;104.050;2022-09-13T02:02:07;127.63;;;80.50;;
17858;SDS011;35426;30.698;104.050;2022-09-13T02:04:54;113.27;;;73.37;;
17858;SDS011;35426;30.698;104.050;2022-09-13T02:07:37;104.00;;;66.97;;
17858;SDS011;35426;30.698;104.050;2022-09-13T02:10:33;104.33;;;67.40;;
17858;SDS011;35426;30.698;104.050;2022-09-13T02:13:25;103.13;;;67.80;;
17858;SDS011;35426;30.698;104.050;2022-09-13T02:16:07;106.43;;;68.67;;
17858;SDS011;35426;30.698;104.050;2022-09-13T02:18:53;105.47;;;68.07;;
17858;SDS011;35426;30.698;104.050;2022-09-13T02:21:36;105.33;;;66.03;;
17858;SDS011;35426;30.698;104.050;2022-09-13T02:24:20;106.63;;;70.20;;
17858;SDS011;35426;30.698;104.050;2022-09-13T02:27:03;113.70;;;70.40;;
17858;SDS011;35426;30.698;104.050;2022-09-13T02:29:44;104.57;;;69.30;;
17858;SDS011;35426;30.698;104.050;2022-09-13T02:32:41;105.63;;;70.57;;
17858;SDS011;35426;30.698;104.050;2022-09-13T02:35:21;116.03;;;69.03;;
17858;SDS011;35426;30.698;104.050;2022-09-13T02:38:19;102.73;;;68.37;;
17858;SDS011;35426;30.698;104.050;2022-09-13T02:41:00;111.67;;;72.63;;
17858;SDS011;35426;30.698;104.050;2022-09-13T02:43:43;98.60;;;66.73;;
17858;SDS011;35426;30.698;104.050;2022-09-13T02:46:32;105.40;;;68.97;;
17858;SDS011;35426;30.698;104.050;2022-09-13T02:49:19;104.67;;;67.50;;
17858;SDS011;35426;30.698;104.050;2022-09-13T02:52:04;101.20;;;67.17;;
17858;SDS011;35426;30.698;104.050;2022-09-13T02:54:46;106.60;;;67.13;;
17858;SDS011;35426;30.698;104.050;2022-09-13T02:57:32;107.17;;;73.03;;
17858;SDS011;35426;30.698;104.050;2022-09-13T03:00:15;112.50;;;71.53;;
17858;SDS011;35426;30.698;104.050;2022-09-13T03:02:53;113.17;;;74.07;;
17858;SDS011;35426;30.698;104.050;2022-09-13T03:05:36;105.57;;;70.13;;
17858;SDS011;35426;30.698;104.050;2022-09-13T03:08:13;118.60;;;75.03;;
17858;SDS011;35426;30.698;104.050;2022-09-13T03:10:54;111.77;;;72.07;;
17858;SDS011;35426;30.698;104.050;2022-09-13T03:13:47;110.83;;;71.93;;
17858;SDS011;35426;30.698;104.050;2022-09-13T03:16:38;109.90;;;71.73;;
17858;SDS011;35426;30.698;104.050;2022-09-13T03:19:28;110.60;;;74.00;;
17858;SDS011;35426;30.698;104.050;2022-09-13T03:22:29;106.30;;;70.90;;
17858;SDS011;35426;30.698;104.050;2022-09-13T03:25:25;112.80;;;74.53;;
17858;SDS011;35426;30.698;104.050;2022-09-13T03:28:23;105.50;;;70.27;;
17858;SDS011;35426;30.698;104.050;2022-09-13T03:31:09;110.80;;;71.83;;
17858;SDS011;35426;30.698;104.050;2022-09-13T03:34:15;107.27;;;72.73;;
17858;SDS011;35426;30.698;104.050;2022-09-13T03:37:23;107.53;;;71.60;;
17858;SDS011;35426;30.698;104.050;2022-09-13T03:40:06;110.83;;;73.43;;
17858;SDS011;35426;30.698;104.050;2022-09-13T03:42:53;110.20;;;71.63;;
17858;SDS011;35426;30.698;104.050;2022-09-13T03:45:43;107.67;;;70.70;;
17858;SDS011;35426;30.698;104.050;2022-09-13T03:48:23;109.80;;;72.30;;
17858;SDS011;35426;30.698;104.050;2022-09-13T03:51:02;109.83;;;72.07;;
17858;SDS011;35426;30.698;104.050;2022-09-13T03:53:41;112.10;;;73.97;;
17858;SDS011;35426;30.698;104.050;2022-09-13T03:56:33;108.33;;;71.97;;
17858;SDS011;35426;30.698;104.050;2022-09-13T03:59:11;106.67;;;69.23;;
17858;SDS011;35426;30.698;104.050;2022-09-13T04:01:54;112.23;;;73.37;;
17858;SDS011;35426;30.698;104.050;2022-09-13T04:04:33;110.50;;;73.10;;
17858;SDS011;35426;30.698;104.050;2022-09-13T04:11:26;102.70;;;68.23;;
17858;SDS011;35426;30.698;104.050;2022-09-13T04:14:08;100.53;;;68.77;;
17858;SDS011;35426;30.698;104.050;2022-09-13T04:16:48;103.10;;;69.50;;
17858;SDS011;35426;30.698;104.050;2022-09-13T04:19:40;98.70;;;66.80;;
17858;SDS011;35426;30.698;104.050;2022-09-13T04:22:18;104.33;;;69.17;;
17858;SDS011;35426;30.698;104.050;2022-09-13T04:24:55;100.43;;;68.20;;
17858;SDS011;35426;30.698;104.050;2022-09-13T04:27:35;103.83;;;69.03;;
17858;SDS011;35426;30.698;104.050;2022-09-13T04:30:14;94.57;;;65.70;;
17858;SDS011;35426;30.698;104.050;2022-09-13T04:32:56;97.27;;;66.87;;
17858;SDS011;35426;30.698;104.050;2022-09-13T04:35:37;98.37;;;65.47;;
17858;SDS011;35426;30.698;104.050;2022-09-13T04:38:16;111.70;;;76.43;;
17858;SDS011;35426;30.698;104.050;2022-09-13T04:40:56;107.67;;;74.70;;
17858;SDS011;35426;30.698;104.050;2022-09-13T04:43:33;108.20;;;72.63;;
17858;SDS011;35426;30.698;104.050;2022-09-13T04:46:10;107.63;;;69.60;;
17858;SDS011;35426;30.698;104.050;2022-09-13T04:51:55;111.10;;;71.67;;
17858;SDS011;35426;30.698;104.050;2022-09-13T04:54:41;113.63;;;72.10;;
17858;SDS011;35426;30.698;104.050;2022-09-13T04:57:21;106.77;;;71.53;;
17858;SDS011;35426;30.698;104.050;2022-09-13T05:00:00;104.53;;;69.60;;
17858;SDS011;35426;30.698;104.050;2022-09-13T05:02:39;111.97;;;73.73;;
17858;SDS011;35426;30.698;104.050;2022-09-13T05:05:40;112.70;;;72.17;;
17858;SDS011;35426;30.698;104.050;2022-09-13T05:08:59;104.40;;;69.10;;
17858;SDS011;35426;30.698;104.050;2022-09-13T05:13:55;110.00;;;72.43;;
17858;SDS011;35426;30.698;104.050;2022-09-13T05:16:38;103.77;;;69.83;;
17858;SDS011;35426;30.698;104.050;2022-09-13T05:19:18;98.73;;;69.47;;
17858;SDS011;35426;30.698;104.050;2022-09-13T05:22:10;92.07;;;64.00;;
17858;SDS011;35426;30.698;104.050;2022-09-13T05:24:49;95.57;;;65.73;;
17858;SDS011;35426;30.698;104.050;2022-09-13T05:27:27;90.63;;;62.43;;
17858;SDS011;35426;30.698;104.050;2022-09-13T05:30:10;89.63;;;63.33;;
17858;SDS011;35426;30.698;104.050;2022-09-13T05:32:49;89.77;;;62.60;;
17858;SDS011;35426;30.698;104.050;2022-09-13T05:35:33;88.77;;;60.40;;
17858;SDS011;35426;30.698;104.050;2022-09-13T05:38:16;87.43;;;58.63;;
17858;SDS011;35426;30.698;104.050;2022-09-13T05:40:54;80.93;;;56.47;;
17858;SDS011;35426;30.698;104.050;2022-09-13T05:43:34;80.73;;;56.60;;
17858;SDS011;35426;30.698;104.050;2022-09-13T05:46:13;85.83;;;58.50;;
17858;SDS011;35426;30.698;104.050;2022-09-13T05:48:49;79.17;;;55.43;;
17858;SDS011;35426;30.698;104.050;2022-09-13T05:51:24;83.27;;;57.10;;
17858;SDS011;35426;30.698;104.050;2022-09-13T05:54:00;82.83;;;55.80;;
17858;SDS011;35426;30.698;104.050;2022-09-13T05:56:36;72.30;;;52.83;;
17858;SDS011;35426;30.698;104.050;2022-09-13T05:59:23;75.97;;;51.93;;
17858;SDS011;35426;30.698;104.050;2022-09-13T06:02:04;76.87;;;53.07;;
17858;SDS011;35426;30.698;104.050;2022-09-13T06:04:48;76.43;;;52.57;;
17858;SDS011;35426;30.698;104.050;2022-09-13T06:07:46;79.50;;;53.83;;
17858;SDS011;35426;30.698;104.050;2022-09-13T06:10:25;76.57;;;54.50;;
17858;SDS011;35426;30.698;104.050;2022-09-13T06:13:02;81.50;;;56.13;;
17858;SDS011;35426;30.698;104.050;2022-09-13T06:15:57;74.90;;;53.97;;
17858;SDS011;35426;30.698;104.050;2022-09-13T06:18:36;77.50;;;54.00;;
17858;SDS011;35426;30.698;104.050;2022-09-13T06:21:15;76.43;;;54.20;;
17858;SDS011;35426;30.698;104.050;2022-09-13T06:23:56;82.03;;;55.73;;
17858;SDS011;35426;30.698;104.050;2022-09-13T06:26:46;79.83;;;56.50;;
17858;SDS011;35426;30.698;104.050;2022-09-13T06:29:23;80.30;;;56.43;;
17858;SDS011;35426;30.698;104.050;2022-09-13T06:32:02;82.80;;;57.70;;
17858;SDS011;35426;30.698;104.050;2022-09-13T06:34:56;80.93;;;57.10;;
17858;SDS011;35426;30.698;104.050;2022-09-13T06:37:50;88.30;;;58.67;;
17858;SDS011;35426;30.698;104.050;2022-09-13T06:40:28;88.30;;;61.20;;
17858;SDS011;35426;30.698;104.050;2022-09-13T06:43:07;84.17;;;59.97;;
17858;SDS011;35426;30.698;104.050;2022-09-13T06:46:02;88.80;;;59.33;;
17858;SDS011;35426;30.698;104.050;2022-09-13T06:49:13;84.03;;;57.03;;
17858;SDS011;35426;30.698;104.050;2022-09-13T06:51:53;84.27;;;58.00;;
17858;SDS011;35426;30.698;104.050;2022-09-13T06:54:29;79.93;;;57.03;;
17858;SDS011;35426;30.698;104.050;2022-09-13T06:57:09;84.97;;;58.87;;
17858;SDS011;35426;30.698;104.050;2022-09-13T07:00:01;86.50;;;59.97;;
17858;SDS011;35426;30.698;104.050;2022-09-13T07:02:37;82.70;;;58.87;;
17858;SDS011;35426;30.698;104.050;2022-09-13T07:05:20;84.53;;;57.47;;
17858;SDS011;35426;30.698;104.050;2022-09-13T07:08:01;81.77;;;57.93;;
17858;SDS011;35426;30.698;104.050;2022-09-13T07:10:40;82.07;;;56.93;;
17858;SDS011;35426;30.698;104.050;2022-09-13T07:13:18;79.07;;;55.07;;
17858;SDS011;35426;30.698;104.050;2022-09-13T07:16:01;75.67;;;54.40;;
17858;SDS011;35426;30.698;104.050;2022-09-13T07:18:43;79.07;;;55.67;;
17858;SDS011;35426;30.698;104.050;2022-09-13T07:21:24;88.80;;;60.10;;
17858;SDS011;35426;30.698;104.050;2022-09-13T07:24:15;81.13;;;59.83;;
17858;SDS011;35426;30.698;104.050;2022-09-13T07:26:55;83.47;;;60.33;;
17858;SDS011;35426;30.698;104.050;2022-09-13T07:32:58;87.10;;;60.63;;
17858;SDS011;35426;30.698;104.050;2022-09-13T07:35:44;80.03;;;58.23;;
17858;SDS011;35426;30.698;104.050;2022-09-13T07:38:52;85.47;;;58.90;;
17858;SDS011;35426;30.698;104.050;2022-09-13T07:41:57;84.83;;;59.23;;
17858;SDS011;35426;30.698;104.050;2022-09-13T07:44:45;95.83;;;61.57;;
17858;SDS011;35426;30.698;104.050;2022-09-13T07:47:23;86.73;;;60.83;;
17858;SDS011;35426;30.698;104.050;2022-09-13T07:49:59;80.27;;;58.50;;
17858;SDS011;35426;30.698;104.050;2022-09-13T07:52:36;84.00;;;59.13;;
17858;SDS011;35426;30.698;104.050;2022-09-13T07:55:11;82.03;;;58.47;;
17858;SDS011;35426;30.698;104.050;2022-09-13T07:58:02;85.10;;;60.03;;
17858;SDS011;35426;30.698;104.050;2022-09-13T08:00:39;80.63;;;58.33;;
17858;SDS011;35426;30.698;104.050;2022-09-13T08:03:17;80.60;;;57.60;;
17858;SDS011;35426;30.698;104.050;2022-09-13T08:05:56;82.30;;;57.23;;
17858;SDS011;35426;30.698;104.050;2022-09-13T08:08:38;84.30;;;58.73;;
17858;SDS011;35426;30.698;104.050;2022-09-13T08:11:15;78.80;;;56.23;;
17858;SDS011;35426;30.698;104.050;2022-09-13T08:13:54;76.30;;;56.80;;
17858;SDS011;35426;30.698;104.050;2022-09-13T08:16:36;75.97;;;54.60;;
17858;SDS011;35426;30.698;104.050;2022-09-13T08:19:17;79.87;;;56.63;;
17858;SDS011;35426;30.698;104.050;2022-09-13T08:21:53;78.73;;;56.00;;
17858;SDS011;35426;30.698;104.050;2022-09-13T08:24:30;75.80;;;55.07;;
17858;SDS011;35426;30.698;104.050;2022-09-13T08:27:08;74.20;;;54.97;;
17858;SDS011;35426;30.698;104.050;2022-09-13T08:29:50;75.17;;;54.23;;
17858;SDS011;35426;30.698;104.050;2022-09-13T08:32:27;75.70;;;54.90;;
17858;SDS011;35426;30.698;104.050;2022-09-13T08:35:04;75.20;;;54.57;;
17858;SDS011;35426;30.698;104.050;2022-09-13T08:37:42;74.50;;;53.73;;
17858;SDS011;35426;30.698;104.050;2022-09-13T08:40:23;77.77;;;55.13;;
17858;SDS011;35426;30.698;104.050;2022-09-13T08:43:05;75.57;;;54.60;;
17858;SDS011;35426;30.698;104.050;2022-09-13T08:45:57;78.60;;;55.47;;
17858;SDS011;35426;30.698;104.050;2022-09-13T08:48:39;84.33;;;58.00;;
17858;SDS011;35426;30.698;104.050;2022-09-13T08:51:27;82.73;;;58.80;;
17858;SDS011;35426;30.698;104.050;2022-09-13T08:54:09;80.47;;;58.00;;
17858;SDS011;35426;30.698;104.050;2022-09-13T08:56:50;92.57;;;63.27;;
17858;SDS011;35426;30.698;104.050;2022-09-13T08:59:37;90.10;;;63.07;;
17858;SDS011;35426;30.698;104.050;2022-09-13T09:02:29;85.03;;;58.77;;
17858;SDS011;35426;30.698;104.050;2022-09-13T09:05:20;89.63;;;60.83;;
17858;SDS011;35426;30.698;104.050;2022-09-13T09:07:59;88.13;;;62.13;;
17858;SDS011;35426;30.698;104.050;2022-09-13T09:10:44;82.70;;;60.23;;
17858;SDS011;35426;30.698;104.050;2022-09-13T09:13:41;88.93;;;60.67;;
17858;SDS011;35426;30.698;104.050;2022-09-13T09:16:27;78.37;;;54.87;;
17858;SDS011;35426;30.698;104.050;2022-09-13T09:19:15;78.97;;;53.90;;
17858;SDS011;35426;30.698;104.050;2022-09-13T09:21:55;68.20;;;50.90;;
17858;SDS011;35426;30.698;104.050;2022-09-13T09:24:32;78.90;;;55.23;;
17858;SDS011;35426;30.698;104.050;2022-09-13T09:27:12;71.43;;;50.03;;
17858;SDS011;35426;30.698;104.050;2022-09-13T09:29:51;68.77;;;49.77;;
17858;SDS011;35426;30.698;104.050;2022-09-13T09:32:36;70.60;;;50.37;;
17858;SDS011;35426;30.698;104.050;2022-09-13T09:35:41;74.63;;;52.10;;
17858;SDS011;35426;30.698;104.050;2022-09-13T09:38:33;70.77;;;50.67;;
17858;SDS011;35426;30.698;104.050;2022-09-13T09:41:54;68.53;;;49.03;;
17858;SDS011;35426;30.698;104.050;2022-09-13T09:44:43;69.03;;;50.07;;
17858;SDS011;35426;30.698;104.050;2022-09-13T09:47:43;62.80;;;46.03;;
17858;SDS011;35426;30.698;104.050;2022-09-13T09:54:44;61.30;;;44.07;;
17858;SDS011;35426;30.698;104.050;2022-09-13T10:01:00;65.50;;;46.93;;
17858;SDS011;35426;30.698;104.050;2022-09-13T10:04:00;68.37;;;48.60;;
17858;SDS011;35426;30.698;104.050;2022-09-13T10:07:17;71.90;;;48.80;;
17858;SDS011;35426;30.698;104.050;2022-09-13T10:10:30;66.97;;;48.53;;
17858;SDS011;35426;30.698;104.050;2022-09-13T10:14:01;66.53;;;47.70;;
17858;SDS011;35426;30.698;104.050;2022-09-13T10:16:40;69.07;;;48.97;;
17858;SDS011;35426;30.698;104.050;2022-09-13T10:19:25;67.17;;;47.70;;
17858;SDS011;35426;30.698;104.050;2022-09-13T10:22:11;68.30;;;48.43;;
17858;SDS011;35426;30.698;104.050;2022-09-13T10:24:49;68.27;;;48.57;;
17858;SDS011;35426;30.698;104.050;2022-09-13T10:27:28;70.27;;;49.67;;
17858;SDS011;35426;30.698;104.050;2022-09-13T10:30:22;70.93;;;49.60;;
17858;SDS011;35426;30.698;104.050;2022-09-13T10:33:06;67.93;;;48.27;;
17858;SDS011;35426;30.698;104.050;2022-09-13T10:35:57;74.63;;;49.23;;
17858;SDS011;35426;30.698;104.050;2022-09-13T10:38:46;68.43;;;46.77;;
17858;SDS011;35426;30.698;104.050;2022-09-13T10:41:35;72.97;;;47.70;;
17858;SDS011;35426;30.698;104.050;2022-09-13T10:44:21;65.63;;;48.10;;
17858;SDS011;35426;30.698;104.050;2022-09-13T10:47:03;69.57;;;48.67;;
17858;SDS011;35426;30.698;104.050;2022-09-13T10:50:16;69.30;;;48.93;;
17858;SDS011;35426;30.698;104.050;2022-09-13T10:52:53;69.03;;;48.70;;
17858;SDS011;35426;30.698;104.050;2022-09-13T10:55:34;68.83;;;49.50;;
17858;SDS011;35426;30.698;104.050;2022-09-13T10:58:25;67.57;;;47.57;;
17858;SDS011;35426;30.698;104.050;2022-09-13T11:04:24;64.17;;;46.83;;
17858;SDS011;35426;30.698;104.050;2022-09-13T11:10:18;67.13;;;47.50;;
17858;SDS011;35426;30.698;104.050;2022-09-13T11:13:05;70.13;;;49.13;;
17858;SDS011;35426;30.698;104.050;2022-09-13T11:15:50;72.10;;;50.40;;
17858;SDS011;35426;30.698;104.050;2022-09-13T11:18:42;73.03;;;50.40;;
17858;SDS011;35426;30.698;104.050;2022-09-13T11:21:53;75.57;;;48.47;;
17858;SDS011;35426;30.698;104.050;2022-09-13T11:24:56;70.50;;;49.33;;
17858;SDS011;35426;30.698;104.050;2022-09-13T11:27:47;68.90;;;48.97;;
17858;SDS011;35426;30.698;104.050;2022-09-13T11:30:32;67.67;;;48.40;;
17858;SDS011;35426;30.698;104.050;2022-09-13T11:33:26;74.00;;;51.33;;
17858;SDS011;35426;30.698;104.050;2022-09-13T11:36:16;70.73;;;50.27;;
17858;SDS011;35426;30.698;104.050;2022-09-13T11:39:13;72.97;;;51.30;;
17858;SDS011;35426;30.698;104.050;2022-09-13T11:42:19;76.47;;;50.80;;
17858;SDS011;35426;30.698;104.050;2022-09-13T11:45:22;74.60;;;49.63;;
17858;SDS011;35426;30.698;104.050;2022-09-13T11:51:13;74.17;;;50.00;;
17858;SDS011;35426;30.698;104.050;2022-09-13T11:54:14;74.77;;;52.27;;
17858;SDS011;35426;30.698;104.050;2022-09-13T11:57:02;75.03;;;51.30;;
17858;SDS011;35426;30.698;104.050;2022-09-13T11:59:47;77.77;;;51.83;;
17858;SDS011;35426;30.698;104.050;2022-09-13T12:02:35;71.43;;;49.10;;
17858;SDS011;35426;30.698;104.050;2022-09-13T12:05:15;68.23;;;48.00;;
17858;SDS011;35426;30.698;104.050;2022-09-13T12:07:55;72.03;;;47.53;;
17858;SDS011;35426;30.698;104.050;2022-09-13T12:10:44;70.53;;;48.53;;
17858;SDS011;35426;30.698;104.050;2022-09-13T12:13:23;68.50;;;47.40;;
17858;SDS011;35426;30.698;104.050;2022-09-13T12:16:06;62.13;;;44.07;;
17858;SDS011;35426;30.698;104.050;2022-09-13T12:18:53;65.80;;;45.60;;
17858;SDS011;35426;30.698;104.050;2022-09-13T12:21:35;63.00;;;45.63;;
17858;SDS011;35426;30.698;104.050;2022-09-13T12:24:16;63.47;;;44.60;;
17858;SDS011;35426;30.698;104.050;2022-09-13T12:26:58;68.03;;;44.63;;
17858;SDS011;35426;30.698;104.050;2022-09-13T12:29:42;68.37;;;45.87;;
17858;SDS011;35426;30.698;104.050;2022-09-13T12:32:27;68.53;;;45.87;;
17858;SDS011;35426;30.698;104.050;2022-09-13T12:35:06;70.30;;;48.07;;
17858;SDS011;35426;30.698;104.050;2022-09-13T12:38:56;66.97;;;45.77;;
17858;SDS011;35426;30.698;104.050;2022-09-13T12:42:04;66.10;;;46.53;;
17858;SDS011;35426;30.698;104.050;2022-09-13T12:45:14;65.43;;;44.23;;
17858;SDS011;35426;30.698;104.050;2022-09-13T12:48:29;67.60;;;45.73;;
17858;SDS011;35426;30.698;104.050;2022-09-13T12:51:29;65.80;;;44.47;;
17858;SDS011;35426;30.698;104.050;2022-09-13T12:54:21;67.73;;;46.00;;
17858;SDS011;35426;30.698;104.050;2022-09-13T12:57:20;68.90;;;45.50;;
17858;SDS011;35426;30.698;104.050;2022-09-13T13:00:19;64.50;;;44.63;;
17858;SDS011;35426;30.698;104.050;2022-09-13T13:03:01;71.20;;;46.80;;
17858;SDS011;35426;30.698;104.050;2022-09-13T13:08:00;72.40;;;47.00;;
17858;SDS011;35426;30.698;104.050;2022-09-13T13:09:29;70.63;;;46.67;;
17858;SDS011;35426;30.698;104.050;2022-09-13T13:12:11;69.07;;;45.87;;
17858;SDS011;35426;30.698;104.050;2022-09-13T13:15:52;66.90;;;46.30;;
17858;SDS011;35426;30.698;104.050;2022-09-13T13:18:27;67.43;;;45.50;;
17858;SDS011;35426;30.698;104.050;2022-09-13T13:30:47;64.73;;;44.53;;
17858;SDS011;35426;30.698;104.050;2022-09-13T13:33:52;67.37;;;41.23;;
17858;SDS011;35426;30.698;104.050;2022-09-13T13:39:34;63.87;;;43.03;;
17858;SDS011;35426;30.698;104.050;2022-09-13T13:42:23;61.87;;;41.80;;
17858;SDS011;35426;30.698;104.050;2022-09-13T13:45:13;63.67;;;42.20;;
17858;SDS011;35426;30.698;104.050;2022-09-13T13:48:08;63.27;;;43.37;;
17858;SDS011;35426;30.698;104.050;2022-09-13T13:53:49;59.27;;;42.37;;
17858;SDS011;35426;30.698;104.050;2022-09-13T13:56:45;62.27;;;42.23;;
17858;SDS011;35426;30.698;104.050;2022-09-13T13:59:30;57.97;;;40.47;;
17858;SDS011;35426;30.698;104.050;2022-09-13T14:02:14;62.23;;;40.97;;
17858;SDS011;35426;30.698;104.050;2022-09-13T14:05:01;59.47;;;41.87;;
17858;SDS011;35426;30.698;104.050;2022-09-13T14:11:10;63.43;;;40.67;;
17858;SDS011;35426;30.698;104.050;2022-09-13T14:16:59;56.67;;;39.77;;
17858;SDS011;35426;30.698;104.050;2022-09-13T14:19:57;59.07;;;39.57;;
17858;SDS011;35426;30.698;104.050;2022-09-13T14:22:43;58.53;;;40.03;;
17858;SDS011;35426;30.698;104.050;2022-09-13T14:25:35;60.57;;;38.77;;
17858;SDS011;35426;30.698;104.050;2022-09-13T14:28:16;60.27;;;39.60;;
17858;SDS011;35426;30.698;104.050;2022-09-13T14:31:14;59.47;;;40.33;;
17858;SDS011;35426;30.698;104.050;2022-09-13T14:33:57;59.73;;;39.73;;
17858;SDS011;35426;30.698;104.050;2022-09-13T14:36:35;64.23;;;39.70;;
17858;SDS011;35426;30.698;104.050;2022-09-13T14:39:25;55.17;;;37.67;;
17858;SDS011;35426;30.698;104.050;2022-09-13T14:42:15;59.80;;;38.20;;
17858;SDS011;35426;30.698;104.050;2022-09-13T14:44:52;58.53;;;38.40;;
17858;SDS011;35426;30.698;104.050;2022-09-13T14:47:30;58.30;;;38.37;;
17858;SDS011;35426;30.698;104.050;2022-09-13T14:50:15;61.17;;;38.00;;
17858;SDS011;35426;30.698;104.050;2022-09-13T14:53:04;53.53;;;38.10;;
17858;SDS011;35426;30.698;104.050;2022-09-13T14:55:54;52.77;;;37.13;;
17858;SDS011;35426;30.698;104.050;2022-09-13T14:59:10;57.70;;;38.50;;
17858;SDS011;35426;30.698;104.050;2022-09-13T15:01:52;54.67;;;38.30;;
17858;SDS011;35426;30.698;104.050;2022-09-13T15:04:31;57.20;;;38.57;;
17858;SDS011;35426;30.698;104.050;2022-09-13T15:07:17;54.60;;;37.10;;
17858;SDS011;35426;30.698;104.050;2022-09-13T15:10:18;57.43;;;38.87;;
17858;SDS011;35426;30.698;104.050;2022-09-13T15:13:07;57.30;;;38.63;;
17858;SDS011;35426;30.698;104.050;2022-09-13T15:15:50;58.03;;;38.03;;
17858;SDS011;35426;30.698;104.050;2022-09-13T15:18:37;54.33;;;37.63;;
17858;SDS011;35426;30.698;104.050;2022-09-13T15:21:36;55.83;;;37.50;;
17858;SDS011;35426;30.698;104.050;2022-09-13T15:24:18;55.27;;;38.10;;
17858;SDS011;35426;30.698;104.050;2022-09-13T15:27:15;57.20;;;39.07;;
17858;SDS011;35426;30.698;104.050;2022-09-13T15:30:24;53.57;;;37.67;;
17858;SDS011;35426;30.698;104.050;2022-09-13T15:33:18;55.80;;;37.03;;
17858;SDS011;35426;30.698;104.050;2022-09-13T15:36:14;60.80;;;37.43;;
17858;SDS011;35426;30.698;104.050;2022-09-13T15:39:02;53.63;;;37.93;;
17858;SDS011;35426;30.698;104.050;2022-09-13T15:41:54;52.30;;;37.23;;
17858;SDS011;35426;30.698;104.050;2022-09-13T15:44:37;54.23;;;37.57;;
17858;SDS011;35426;30.698;104.050;2022-09-13T15:47:15;65.03;;;39.07;;
17858;SDS011;35426;30.698;104.050;2022-09-13T15:49:52;55.40;;;37.40;;
17858;SDS011;35426;30.698;104.050;2022-09-13T15:52:28;55.77;;;37.17;;
17858;SDS011;35426;30.698;104.050;2022-09-13T15:55:10;54.60;;;37.70;;
17858;SDS011;35426;30.698;104.050;2022-09-13T15:57:53;58.37;;;38.17;;
17858;SDS011;35426;30.698;104.050;2022-09-13T16:00:33;54.13;;;37.53;;
17858;SDS011;35426;30.698;104.050;2022-09-13T16:03:22;55.33;;;38.07;;
17858;SDS011;35426;30.698;104.050;2022-09-13T16:05:59;53.70;;;37.37;;
17858;SDS011;35426;30.698;104.050;2022-09-13T16:09:30;56.57;;;37.40;;
17858;SDS011;35426;30.698;104.050;2022-09-13T16:12:09;56.67;;;38.23;;
17858;SDS011;35426;30.698;104.050;2022-09-13T16:14:47;58.60;;;38.27;;
17858;SDS011;35426;30.698;104.050;2022-09-13T16:17:26;56.10;;;36.93;;
17858;SDS011;35426;30.698;104.050;2022-09-13T16:20:09;53.90;;;37.60;;
17858;SDS011;35426;30.698;104.050;2022-09-13T16:22:47;56.77;;;37.37;;
17858;SDS011;35426;30.698;104.050;2022-09-13T16:25:28;55.57;;;36.63;;
17858;SDS011;35426;30.698;104.050;2022-09-13T16:28:07;57.90;;;37.57;;
17858;SDS011;35426;30.698;104.050;2022-09-13T16:30:52;56.23;;;38.50;;
17858;SDS011;35426;30.698;104.050;2022-09-13T16:33:35;56.27;;;37.47;;
17858;SDS011;35426;30.698;104.050;2022-09-13T16:36:16;56.63;;;37.00;;
17858;SDS011;35426;30.698;104.050;2022-09-13T16:39:10;55.87;;;38.03;;
17858;SDS011;35426;30.698;104.050;2022-09-13T16:41:54;64.57;;;38.23;;